sensor_id;sensor_type;location;lat;lon;timestamp;temperature;humidity
36002;DHT22;22070;50.922;5.430;2023-04-15T00:00:48;7.80;99.90
36002;DHT22;22070;50.922;5.430;2023-04-15T00:03:16;7.80;99.90
36002;DHT22;22070;50.922;5.430;2023-04-15T00:05:42;7.80;99.90
36002;DHT22;22070;50.922;5.430;2023-04-15T00:08:07;7.90;99.90
36002;DHT22;22070;50.922;5.430;2023-04-15T00:10:33;7.80;99.90
36002;DHT22;22070;50.922;5.430;2023-04-15T00:12:59;7.80;99.90
36002;DHT22;22070;50.922;5.430;2023-04-15T00:15:25;8.00;99.90
36002;DHT22;22070;50.922;5.430;2023-04-15T00:17:51;8.00;99.90
36002;DHT22;22070;50.922;5.430;2023-04-15T00:20:17;8.10;99.90
36002;DHT22;22070;50.922;5.430;2023-04-15T00:22:42;7.90;99.90
36002;DHT22;22070;50.922;5.430;2023-04-15T00:25:08;7.90;99.90
36002;DHT22;22070;50.922;5.430;2023-04-15T00:27:34;7.90;99.90
36002;DHT22;22070;50.922;5.430;2023-04-15T00:29:59;7.80;99.90
36002;DHT22;22070;50.922;5.430;2023-04-15T00:32:25;7.90;99.90
36002;DHT22;22070;50.922;5.430;2023-04-15T00:34:50;7.90;99.90
36002;DHT22;22070;50.922;5.430;2023-04-15T00:37:16;8.00;99.90
36002;DHT22;22070;50.922;5.430;2023-04-15T00:39:42;8.00;99.90
36002;DHT22;22070;50.922;5.430;2023-04-15T00:42:09;8.00;99.90
36002;DHT22;22070;50.922;5.430;2023-04-15T00:44:34;8.00;99.90
36002;DHT22;22070;50.922;5.430;2023-04-15T00:47:00;8.00;99.90
36002;DHT22;22070;50.922;5.430;2023-04-15T00:49:28;8.00;99.90
36002;DHT22;22070;50.922;5.430;2023-04-15T00:51:54;7.90;99.90
36002;DHT22;22070;50.922;5.430;2023-04-15T00:54:20;7.80;99.90
36002;DHT22;22070;50.922;5.430;2023-04-15T00:56:46;7.70;99.90
36002;DHT22;22070;50.922;5.430;2023-04-15T00:59:13;7.70;99.90
36002;DHT22;22070;50.922;5.430;2023-04-15T01:01:39;7.60;99.90
36002;DHT22;22070;50.922;5.430;2023-04-15T01:04:05;7.60;99.90
36002;DHT22;22070;50.922;5.430;2023-04-15T01:06:31;7.60;99.90
36002;DHT22;22070;50.922;5.430;2023-04-15T01:08:58;7.70;99.90
36002;DHT22;22070;50.922;5.430;2023-04-15T01:11:24;7.70;99.90
36002;DHT22;22070;50.922;5.430;2023-04-15T01:13:51;7.70;99.90
36002;DHT22;22070;50.922;5.430;2023-04-15T01:16:18;7.80;99.90
36002;DHT22;22070;50.922;5.430;2023-04-15T01:18:44;7.90;99.90
36002;DHT22;22070;50.922;5.430;2023-04-15T01:21:10;7.90;99.90
36002;DHT22;22070;50.922;5.430;2023-04-15T01:23:38;7.90;99.90
36002;DHT22;22070;50.922;5.430;2023-04-15T01:26:04;7.90;99.90
36002;DHT22;22070;50.922;5.430;2023-04-15T01:28:31;7.90;99.90
36002;DHT22;22070;50.922;5.430;2023-04-15T01:31:11;7.90;99.90
36002;DHT22;22070;50.922;5.430;2023-04-15T01:33:38;8.00;99.90
36002;DHT22;22070;50.922;5.430;2023-04-15T01:36:05;8.00;99.90
36002;DHT22;22070;50.922;5.430;2023-04-15T01:38:33;8.10;99.90
36002;DHT22;22070;50.922;5.430;2023-04-15T01:40:59;8.20;99.90
36002;DHT22;22070;50.922;5.430;2023-04-15T01:43:25;8.30;99.90
36002;DHT22;22070;50.922;5.430;2023-04-15T01:45:51;8.20;99.90
36002;DHT22;22070;50.922;5.430;2023-04-15T01:48:17;8.20;99.90
36002;DHT22;22070;50.922;5.430;2023-04-15T01:50:43;8.30;99.90
36002;DHT22;22070;50.922;5.430;2023-04-15T01:53:09;8.40;99.90
36002;DHT22;22070;50.922;5.430;2023-04-15T01:55:35;8.30;99.90
36002;DHT22;22070;50.922;5.430;2023-04-15T01:58:01;8.30;99.90
36002;DHT22;22070;50.922;5.430;2023-04-15T02:00:27;8.30;99.90
36002;DHT22;22070;50.922;5.430;2023-04-15T02:02:53;8.40;99.90
36002;DHT22;22070;50.922;5.430;2023-04-15T02:05:19;8.50;99.90
36002;DHT22;22070;50.922;5.430;2023-04-15T02:07:45;8.40;99.90
36002;DHT22;22070;50.922;5.430;2023-04-15T02:10:10;8.40;99.90
36002;DHT22;22070;50.922;5.430;2023-04-15T02:12:40;8.30;99.90
36002;DHT22;22070;50.922;5.430;2023-04-15T02:15:07;8.30;99.90
36002;DHT22;22070;50.922;5.430;2023-04-15T02:17:33;8.30;99.90
36002;DHT22;22070;50.922;5.430;2023-04-15T02:20:00;8.30;99.90
36002;DHT22;22070;50.922;5.430;2023-04-15T02:22:26;8.30;99.90
36002;DHT22;22070;50.922;5.430;2023-04-15T02:24:52;8.30;99.90
36002;DHT22;22070;50.922;5.430;2023-04-15T02:27:18;8.40;99.90
36002;DHT22;22070;50.922;5.430;2023-04-15T02:29:44;8.50;99.90
36002;DHT22;22070;50.922;5.430;2023-04-15T02:32:11;8.50;99.90
36002;DHT22;22070;50.922;5.430;2023-04-15T02:34:37;8.40;99.90
36002;DHT22;22070;50.922;5.430;2023-04-15T02:37:06;8.50;99.90
36002;DHT22;22070;50.922;5.430;2023-04-15T02:39:32;8.40;99.90
36002;DHT22;22070;50.922;5.430;2023-04-15T02:41:57;8.50;99.90
36002;DHT22;22070;50.922;5.430;2023-04-15T02:44:24;8.50;99.90
36002;DHT22;22070;50.922;5.430;2023-04-15T02:46:50;8.40;99.90
36002;DHT22;22070;50.922;5.430;2023-04-15T02:49:17;8.40;99.90
36002;DHT22;22070;50.922;5.430;2023-04-15T02:51:43;8.50;99.90
36002;DHT22;22070;50.922;5.430;2023-04-15T02:54:12;8.40;99.90
36002;DHT22;22070;50.922;5.430;2023-04-15T02:56:37;8.40;99.90
36002;DHT22;22070;50.922;5.430;2023-04-15T02:59:03;8.40;99.90
36002;DHT22;22070;50.922;5.430;2023-04-15T03:01:29;8.40;99.90
36002;DHT22;22070;50.922;5.430;2023-04-15T03:03:54;8.50;99.90
36002;DHT22;22070;50.922;5.430;2023-04-15T03:06:20;8.50;99.90
36002;DHT22;22070;50.922;5.430;2023-04-15T03:08:46;8.50;99.90
36002;DHT22;22070;50.922;5.430;2023-04-15T03:11:12;8.50;99.90
36002;DHT22;22070;50.922;5.430;2023-04-15T03:13:39;8.60;99.90
36002;DHT22;22070;50.922;5.430;2023-04-15T03:16:06;8.50;99.90
36002;DHT22;22070;50.922;5.430;2023-04-15T03:18:32;8.50;99.90
36002;DHT22;22070;50.922;5.430;2023-04-15T03:20:58;8.40;99.90
36002;DHT22;22070;50.922;5.430;2023-04-15T03:23:24;8.40;99.90
36002;DHT22;22070;50.922;5.430;2023-04-15T03:25:49;8.50;99.90
36002;DHT22;22070;50.922;5.430;2023-04-15T03:28:15;8.60;99.90
36002;DHT22;22070;50.922;5.430;2023-04-15T03:30:41;8.50;99.90
36002;DHT22;22070;50.922;5.430;2023-04-15T03:33:06;8.40;99.90
36002;DHT22;22070;50.922;5.430;2023-04-15T03:35:33;8.30;99.90
36002;DHT22;22070;50.922;5.430;2023-04-15T03:37:59;8.30;99.90
36002;DHT22;22070;50.922;5.430;2023-04-15T03:40:24;8.40;99.90
36002;DHT22;22070;50.922;5.430;2023-04-15T03:42:50;8.40;99.90
36002;DHT22;22070;50.922;5.430;2023-04-15T03:45:16;8.40;99.90
36002;DHT22;22070;50.922;5.430;2023-04-15T03:47:41;8.40;99.90
36002;DHT22;22070;50.922;5.430;2023-04-15T03:50:07;8.40;99.90
36002;DHT22;22070;50.922;5.430;2023-04-15T03:52:33;8.40;99.90
36002;DHT22;22070;50.922;5.430;2023-04-15T03:54:59;8.40;99.90
36002;DHT22;22070;50.922;5.430;2023-04-15T03:57:24;8.30;99.90
36002;DHT22;22070;50.922;5.430;2023-04-15T03:59:50;8.30;99.90
36002;DHT22;22070;50.922;5.430;2023-04-15T04:02:16;8.40;99.90
36002;DHT22;22070;50.922;5.430;2023-04-15T04:04:42;8.50;99.90
36002;DHT22;22070;50.922;5.430;2023-04-15T04:07:08;8.50;99.90
36002;DHT22;22070;50.922;5.430;2023-04-15T04:09:33;8.50;99.90
36002;DHT22;22070;50.922;5.430;2023-04-15T04:11:59;8.40;99.90
36002;DHT22;22070;50.922;5.430;2023-04-15T04:14:25;8.50;99.90
36002;DHT22;22070;50.922;5.430;2023-04-15T04:16:54;8.40;99.90
36002;DHT22;22070;50.922;5.430;2023-04-15T04:19:21;8.40;99.90
36002;DHT22;22070;50.922;5.430;2023-04-15T04:21:46;8.40;99.90
36002;DHT22;22070;50.922;5.430;2023-04-15T04:24:12;8.40;99.90
36002;DHT22;22070;50.922;5.430;2023-04-15T04:26:37;8.30;99.90
36002;DHT22;22070;50.922;5.430;2023-04-15T04:29:03;8.30;99.90
36002;DHT22;22070;50.922;5.430;2023-04-15T04:31:29;8.40;99.90
36002;DHT22;22070;50.922;5.430;2023-04-15T04:33:54;8.40;99.90
36002;DHT22;22070;50.922;5.430;2023-04-15T04:36:20;8.50;99.90
36002;DHT22;22070;50.922;5.430;2023-04-15T04:38:45;8.40;99.90
36002;DHT22;22070;50.922;5.430;2023-04-15T04:41:11;8.50;99.90
36002;DHT22;22070;50.922;5.430;2023-04-15T04:43:37;8.50;99.90
36002;DHT22;22070;50.922;5.430;2023-04-15T04:46:02;8.50;99.90
36002;DHT22;22070;50.922;5.430;2023-04-15T04:48:28;8.50;99.90
36002;DHT22;22070;50.922;5.430;2023-04-15T04:50:53;8.60;99.90
36002;DHT22;22070;50.922;5.430;2023-04-15T04:53:19;8.60;99.90
36002;DHT22;22070;50.922;5.430;2023-04-15T04:55:45;8.70;99.90
36002;DHT22;22070;50.922;5.430;2023-04-15T04:58:11;8.70;99.90
36002;DHT22;22070;50.922;5.430;2023-04-15T05:00:36;8.80;99.90
36002;DHT22;22070;50.922;5.430;2023-04-15T05:03:03;8.80;99.90
36002;DHT22;22070;50.922;5.430;2023-04-15T05:05:28;8.80;99.90
36002;DHT22;22070;50.922;5.430;2023-04-15T05:07:54;8.90;99.90
36002;DHT22;22070;50.922;5.430;2023-04-15T05:10:20;8.80;99.90
36002;DHT22;22070;50.922;5.430;2023-04-15T05:12:46;8.70;99.90
36002;DHT22;22070;50.922;5.430;2023-04-15T05:15:11;8.70;99.90
36002;DHT22;22070;50.922;5.430;2023-04-15T05:17:37;8.80;99.90
36002;DHT22;22070;50.922;5.430;2023-04-15T05:20:03;8.90;99.90
36002;DHT22;22070;50.922;5.430;2023-04-15T05:22:28;9.00;99.90
36002;DHT22;22070;50.922;5.430;2023-04-15T05:24:54;9.00;99.90
36002;DHT22;22070;50.922;5.430;2023-04-15T05:27:20;9.00;99.90
36002;DHT22;22070;50.922;5.430;2023-04-15T05:29:47;9.00;99.90
36002;DHT22;22070;50.922;5.430;2023-04-15T05:32:12;9.10;99.90
36002;DHT22;22070;50.922;5.430;2023-04-15T05:34:38;9.10;99.90
36002;DHT22;22070;50.922;5.430;2023-04-15T05:37:04;9.10;99.90
36002;DHT22;22070;50.922;5.430;2023-04-15T05:39:29;9.10;99.90
36002;DHT22;22070;50.922;5.430;2023-04-15T05:41:57;9.20;99.90
36002;DHT22;22070;50.922;5.430;2023-04-15T05:44:22;9.10;99.90
36002;DHT22;22070;50.922;5.430;2023-04-15T05:46:48;9.20;99.90
36002;DHT22;22070;50.922;5.430;2023-04-15T05:49:13;9.20;99.90
36002;DHT22;22070;50.922;5.430;2023-04-15T05:51:39;9.20;99.90
36002;DHT22;22070;50.922;5.430;2023-04-15T05:54:05;9.10;99.90
36002;DHT22;22070;50.922;5.430;2023-04-15T05:56:31;9.20;99.90
36002;DHT22;22070;50.922;5.430;2023-04-15T05:58:57;9.20;99.90
36002;DHT22;22070;50.922;5.430;2023-04-15T06:01:22;9.20;99.90
36002;DHT22;22070;50.922;5.430;2023-04-15T06:03:48;9.30;99.90
36002;DHT22;22070;50.922;5.430;2023-04-15T06:06:14;9.30;99.90
36002;DHT22;22070;50.922;5.430;2023-04-15T06:08:40;9.30;99.90
36002;DHT22;22070;50.922;5.430;2023-04-15T06:11:06;9.40;99.90
36002;DHT22;22070;50.922;5.430;2023-04-15T06:13:31;9.40;99.90
36002;DHT22;22070;50.922;5.430;2023-04-15T06:15:58;9.40;99.90
36002;DHT22;22070;50.922;5.430;2023-04-15T06:18:24;9.40;99.90
36002;DHT22;22070;50.922;5.430;2023-04-15T06:20:50;9.50;99.90
36002;DHT22;22070;50.922;5.430;2023-04-15T06:23:16;9.50;99.90
36002;DHT22;22070;50.922;5.430;2023-04-15T06:25:41;9.50;99.90
36002;DHT22;22070;50.922;5.430;2023-04-15T06:28:07;9.60;99.90
36002;DHT22;22070;50.922;5.430;2023-04-15T06:30:33;9.60;99.90
36002;DHT22;22070;50.922;5.430;2023-04-15T06:33:00;9.80;99.90
36002;DHT22;22070;50.922;5.430;2023-04-15T06:35:27;9.70;99.90
36002;DHT22;22070;50.922;5.430;2023-04-15T06:37:53;9.80;99.90
36002;DHT22;22070;50.922;5.430;2023-04-15T06:40:18;9.90;99.90
36002;DHT22;22070;50.922;5.430;2023-04-15T06:42:44;9.90;99.90
36002;DHT22;22070;50.922;5.430;2023-04-15T06:45:10;10.00;99.90
36002;DHT22;22070;50.922;5.430;2023-04-15T06:47:36;10.00;99.90
36002;DHT22;22070;50.922;5.430;2023-04-15T06:50:02;10.10;99.90
36002;DHT22;22070;50.922;5.430;2023-04-15T06:52:28;10.10;99.90
36002;DHT22;22070;50.922;5.430;2023-04-15T06:54:53;10.20;99.90
36002;DHT22;22070;50.922;5.430;2023-04-15T06:57:19;10.30;99.90
36002;DHT22;22070;50.922;5.430;2023-04-15T06:59:45;10.40;99.90
36002;DHT22;22070;50.922;5.430;2023-04-15T07:02:12;10.40;99.90
36002;DHT22;22070;50.922;5.430;2023-04-15T07:04:38;10.40;99.90
36002;DHT22;22070;50.922;5.430;2023-04-15T07:07:04;10.50;99.90
36002;DHT22;22070;50.922;5.430;2023-04-15T07:09:30;10.50;99.90
36002;DHT22;22070;50.922;5.430;2023-04-15T07:11:56;10.50;99.90
36002;DHT22;22070;50.922;5.430;2023-04-15T07:14:22;10.60;99.90
36002;DHT22;22070;50.922;5.430;2023-04-15T07:16:48;10.60;99.90
36002;DHT22;22070;50.922;5.430;2023-04-15T07:19:13;10.60;99.90
36002;DHT22;22070;50.922;5.430;2023-04-15T07:21:39;10.60;99.90
36002;DHT22;22070;50.922;5.430;2023-04-15T07:24:05;10.70;99.90
36002;DHT22;22070;50.922;5.430;2023-04-15T07:26:31;10.70;99.90
36002;DHT22;22070;50.922;5.430;2023-04-15T07:28:56;10.80;99.90
36002;DHT22;22070;50.922;5.430;2023-04-15T07:31:22;10.90;99.90
36002;DHT22;22070;50.922;5.430;2023-04-15T07:33:47;11.00;99.90
36002;DHT22;22070;50.922;5.430;2023-04-15T07:36:13;11.00;99.90
36002;DHT22;22070;50.922;5.430;2023-04-15T07:38:39;11.00;99.90
36002;DHT22;22070;50.922;5.430;2023-04-15T07:41:05;11.10;99.90
36002;DHT22;22070;50.922;5.430;2023-04-15T07:43:31;11.20;99.90
36002;DHT22;22070;50.922;5.430;2023-04-15T07:45:57;11.20;99.90
36002;DHT22;22070;50.922;5.430;2023-04-15T07:48:22;11.40;99.90
36002;DHT22;22070;50.922;5.430;2023-04-15T07:50:48;11.40;99.90
36002;DHT22;22070;50.922;5.430;2023-04-15T07:53:13;11.40;99.90
36002;DHT22;22070;50.922;5.430;2023-04-15T07:55:39;11.50;99.90
36002;DHT22;22070;50.922;5.430;2023-04-15T07:58:05;11.50;99.90
36002;DHT22;22070;50.922;5.430;2023-04-15T08:00:31;11.60;99.90
36002;DHT22;22070;50.922;5.430;2023-04-15T08:02:57;11.70;99.90
36002;DHT22;22070;50.922;5.430;2023-04-15T08:05:23;11.70;99.90
36002;DHT22;22070;50.922;5.430;2023-04-15T08:07:50;11.80;99.90
36002;DHT22;22070;50.922;5.430;2023-04-15T08:10:16;11.80;99.90
36002;DHT22;22070;50.922;5.430;2023-04-15T08:12:42;11.90;99.90
36002;DHT22;22070;50.922;5.430;2023-04-15T08:15:08;12.00;99.90
36002;DHT22;22070;50.922;5.430;2023-04-15T08:17:33;12.10;99.90
36002;DHT22;22070;50.922;5.430;2023-04-15T08:19:59;12.10;99.90
36002;DHT22;22070;50.922;5.430;2023-04-15T08:22:25;12.10;99.90
36002;DHT22;22070;50.922;5.430;2023-04-15T08:24:51;12.00;99.90
36002;DHT22;22070;50.922;5.430;2023-04-15T08:27:17;12.10;99.90
36002;DHT22;22070;50.922;5.430;2023-04-15T08:29:43;12.10;99.90
36002;DHT22;22070;50.922;5.430;2023-04-15T08:32:10;12.10;99.90
36002;DHT22;22070;50.922;5.430;2023-04-15T08:34:35;12.10;99.90
36002;DHT22;22070;50.922;5.430;2023-04-15T08:37:01;12.10;99.90
36002;DHT22;22070;50.922;5.430;2023-04-15T08:39:26;12.10;99.90
36002;DHT22;22070;50.922;5.430;2023-04-15T08:42:02;12.10;99.90
36002;DHT22;22070;50.922;5.430;2023-04-15T08:44:33;12.10;99.90
36002;DHT22;22070;50.922;5.430;2023-04-15T08:47:02;12.10;99.90
36002;DHT22;22070;50.922;5.430;2023-04-15T08:49:28;12.10;99.90
36002;DHT22;22070;50.922;5.430;2023-04-15T08:51:58;12.00;99.90
36002;DHT22;22070;50.922;5.430;2023-04-15T08:54:24;12.00;99.90
36002;DHT22;22070;50.922;5.430;2023-04-15T08:56:51;12.10;99.90
36002;DHT22;22070;50.922;5.430;2023-04-15T08:59:17;12.20;99.90
36002;DHT22;22070;50.922;5.430;2023-04-15T09:01:42;12.20;99.90
36002;DHT22;22070;50.922;5.430;2023-04-15T09:04:10;12.20;99.90
36002;DHT22;22070;50.922;5.430;2023-04-15T09:06:38;12.10;99.90
36002;DHT22;22070;50.922;5.430;2023-04-15T09:09:04;12.10;99.90
36002;DHT22;22070;50.922;5.430;2023-04-15T09:11:30;12.10;99.90
36002;DHT22;22070;50.922;5.430;2023-04-15T09:13:56;12.20;99.90
36002;DHT22;22070;50.922;5.430;2023-04-15T09:16:21;12.30;99.90
36002;DHT22;22070;50.922;5.430;2023-04-15T09:18:47;12.40;99.90
36002;DHT22;22070;50.922;5.430;2023-04-15T09:21:15;12.50;99.90
36002;DHT22;22070;50.922;5.430;2023-04-15T09:23:54;12.60;99.90
36002;DHT22;22070;50.922;5.430;2023-04-15T09:26:30;12.70;99.90
36002;DHT22;22070;50.922;5.430;2023-04-15T09:29:03;12.70;99.90
36002;DHT22;22070;50.922;5.430;2023-04-15T09:31:30;12.60;99.90
36002;DHT22;22070;50.922;5.430;2023-04-15T09:33:55;12.60;99.90
36002;DHT22;22070;50.922;5.430;2023-04-15T09:36:21;12.70;99.90
36002;DHT22;22070;50.922;5.430;2023-04-15T09:38:55;12.80;99.90
36002;DHT22;22070;50.922;5.430;2023-04-15T09:41:21;12.80;99.90
36002;DHT22;22070;50.922;5.430;2023-04-15T09:43:47;12.90;99.90
36002;DHT22;22070;50.922;5.430;2023-04-15T09:46:13;13.00;99.90
36002;DHT22;22070;50.922;5.430;2023-04-15T09:48:39;13.00;99.90
36002;DHT22;22070;50.922;5.430;2023-04-15T09:51:04;13.00;99.90
36002;DHT22;22070;50.922;5.430;2023-04-15T09:53:35;13.10;99.90
36002;DHT22;22070;50.922;5.430;2023-04-15T09:56:01;13.00;99.90
36002;DHT22;22070;50.922;5.430;2023-04-15T09:58:29;13.10;99.90
36002;DHT22;22070;50.922;5.430;2023-04-15T10:00:56;13.10;99.90
36002;DHT22;22070;50.922;5.430;2023-04-15T10:03:23;13.20;99.90
36002;DHT22;22070;50.922;5.430;2023-04-15T10:05:50;13.30;99.90
36002;DHT22;22070;50.922;5.430;2023-04-15T10:08:21;13.30;99.90
36002;DHT22;22070;50.922;5.430;2023-04-15T10:10:48;13.30;99.90
36002;DHT22;22070;50.922;5.430;2023-04-15T10:13:23;13.30;99.90
36002;DHT22;22070;50.922;5.430;2023-04-15T10:15:58;13.30;99.90
36002;DHT22;22070;50.922;5.430;2023-04-15T10:18:27;13.20;99.90
36002;DHT22;22070;50.922;5.430;2023-04-15T10:20:54;13.20;99.90
36002;DHT22;22070;50.922;5.430;2023-04-15T10:23:23;13.20;99.90
36002;DHT22;22070;50.922;5.430;2023-04-15T10:25:51;13.20;99.90
36002;DHT22;22070;50.922;5.430;2023-04-15T10:28:19;13.30;99.90
36002;DHT22;22070;50.922;5.430;2023-04-15T10:30:45;13.30;99.90
36002;DHT22;22070;50.922;5.430;2023-04-15T10:33:12;13.30;99.90
36002;DHT22;22070;50.922;5.430;2023-04-15T10:35:38;13.40;99.90
36002;DHT22;22070;50.922;5.430;2023-04-15T10:41:20;13.40;99.90
36002;DHT22;22070;50.922;5.430;2023-04-15T10:48:51;13.60;99.90
36002;DHT22;22070;50.922;5.430;2023-04-15T10:51:28;13.60;99.90
36002;DHT22;22070;50.922;5.430;2023-04-15T10:54:00;13.70;99.90
36002;DHT22;22070;50.922;5.430;2023-04-15T10:56:29;13.80;99.90
36002;DHT22;22070;50.922;5.430;2023-04-15T10:58:58;13.90;99.90
36002;DHT22;22070;50.922;5.430;2023-04-15T11:01:55;13.90;99.90
36002;DHT22;22070;50.922;5.430;2023-04-15T11:09:59;14.10;99.90
36002;DHT22;22070;50.922;5.430;2023-04-15T11:12:33;14.10;99.90
36002;DHT22;22070;50.922;5.430;2023-04-15T11:15:33;14.20;99.90
36002;DHT22;22070;50.922;5.430;2023-04-15T11:20:37;14.40;99.90
36002;DHT22;22070;50.922;5.430;2023-04-15T11:23:04;14.40;99.90
36002;DHT22;22070;50.922;5.430;2023-04-15T11:25:32;14.50;99.90
36002;DHT22;22070;50.922;5.430;2023-04-15T11:27:59;14.50;99.90
36002;DHT22;22070;50.922;5.430;2023-04-15T11:30:33;14.40;99.90
36002;DHT22;22070;50.922;5.430;2023-04-15T11:33:02;14.40;99.90
36002;DHT22;22070;50.922;5.430;2023-04-15T11:35:29;14.40;99.90
36002;DHT22;22070;50.922;5.430;2023-04-15T11:37:55;14.50;99.90
36002;DHT22;22070;50.922;5.430;2023-04-15T11:40:22;14.50;99.90
36002;DHT22;22070;50.922;5.430;2023-04-15T11:43:07;14.40;99.90
36002;DHT22;22070;50.922;5.430;2023-04-15T11:45:43;14.30;99.90
36002;DHT22;22070;50.922;5.430;2023-04-15T11:48:12;14.30;99.90
36002;DHT22;22070;50.922;5.430;2023-04-15T11:50:39;14.40;99.90
36002;DHT22;22070;50.922;5.430;2023-04-15T11:53:12;14.50;99.90
36002;DHT22;22070;50.922;5.430;2023-04-15T11:55:51;14.60;99.90
36002;DHT22;22070;50.922;5.430;2023-04-15T11:58:24;14.50;99.90
36002;DHT22;22070;50.922;5.430;2023-04-15T12:00:59;14.50;99.90
36002;DHT22;22070;50.922;5.430;2023-04-15T12:03:27;14.50;99.90
36002;DHT22;22070;50.922;5.430;2023-04-15T12:08:56;14.60;99.90
36002;DHT22;22070;50.922;5.430;2023-04-15T12:13:53;14.50;99.90
36002;DHT22;22070;50.922;5.430;2023-04-15T12:16:19;14.70;99.90
36002;DHT22;22070;50.922;5.430;2023-04-15T12:18:46;14.70;99.90
36002;DHT22;22070;50.922;5.430;2023-04-15T12:21:12;14.50;99.90
36002;DHT22;22070;50.922;5.430;2023-04-15T12:23:39;14.70;99.90
36002;DHT22;22070;50.922;5.430;2023-04-15T12:26:05;14.80;99.90
36002;DHT22;22070;50.922;5.430;2023-04-15T12:28:33;14.80;99.90
36002;DHT22;22070;50.922;5.430;2023-04-15T12:31:06;14.90;99.90
36002;DHT22;22070;50.922;5.430;2023-04-15T12:33:33;14.90;99.90
36002;DHT22;22070;50.922;5.430;2023-04-15T12:35:59;15.00;99.90
36002;DHT22;22070;50.922;5.430;2023-04-15T12:38:25;15.10;99.90
36002;DHT22;22070;50.922;5.430;2023-04-15T12:40:50;15.20;99.90
36002;DHT22;22070;50.922;5.430;2023-04-15T12:43:16;15.20;99.90
36002;DHT22;22070;50.922;5.430;2023-04-15T12:45:42;15.30;99.90
36002;DHT22;22070;50.922;5.430;2023-04-15T12:48:07;15.30;99.90
36002;DHT22;22070;50.922;5.430;2023-04-15T12:50:34;15.40;99.90
36002;DHT22;22070;50.922;5.430;2023-04-15T12:53:00;15.30;99.90
36002;DHT22;22070;50.922;5.430;2023-04-15T12:55:26;15.50;99.90
36002;DHT22;22070;50.922;5.430;2023-04-15T12:57:52;15.50;99.90
36002;DHT22;22070;50.922;5.430;2023-04-15T13:00:17;15.50;99.90
36002;DHT22;22070;50.922;5.430;2023-04-15T13:02:43;15.40;99.90
36002;DHT22;22070;50.922;5.430;2023-04-15T13:05:09;15.50;99.90
36002;DHT22;22070;50.922;5.430;2023-04-15T13:07:35;15.30;99.90
36002;DHT22;22070;50.922;5.430;2023-04-15T13:10:00;15.40;99.90
36002;DHT22;22070;50.922;5.430;2023-04-15T13:12:26;15.60;99.90
36002;DHT22;22070;50.922;5.430;2023-04-15T13:14:52;15.60;99.90
36002;DHT22;22070;50.922;5.430;2023-04-15T13:17:17;15.70;99.90
36002;DHT22;22070;50.922;5.430;2023-04-15T13:19:45;15.70;99.90
36002;DHT22;22070;50.922;5.430;2023-04-15T13:22:11;15.90;99.90
36002;DHT22;22070;50.922;5.430;2023-04-15T13:24:36;15.70;99.90
36002;DHT22;22070;50.922;5.430;2023-04-15T13:27:04;15.80;99.90
36002;DHT22;22070;50.922;5.430;2023-04-15T13:29:29;15.90;99.90
36002;DHT22;22070;50.922;5.430;2023-04-15T13:31:55;16.00;99.90
36002;DHT22;22070;50.922;5.430;2023-04-15T13:34:21;16.20;99.90
36002;DHT22;22070;50.922;5.430;2023-04-15T13:36:46;16.20;99.90
36002;DHT22;22070;50.922;5.430;2023-04-15T13:39:12;16.40;99.90
36002;DHT22;22070;50.922;5.430;2023-04-15T13:41:38;16.70;99.90
36002;DHT22;22070;50.922;5.430;2023-04-15T13:44:04;16.80;99.90
36002;DHT22;22070;50.922;5.430;2023-04-15T13:46:30;16.60;99.90
36002;DHT22;22070;50.922;5.430;2023-04-15T13:48:56;16.60;99.90
36002;DHT22;22070;50.922;5.430;2023-04-15T13:51:21;16.60;99.90
36002;DHT22;22070;50.922;5.430;2023-04-15T13:53:47;16.80;99.90
36002;DHT22;22070;50.922;5.430;2023-04-15T13:56:13;16.90;99.90
36002;DHT22;22070;50.922;5.430;2023-04-15T13:58:39;17.00;99.90
36002;DHT22;22070;50.922;5.430;2023-04-15T14:01:05;16.90;99.90
36002;DHT22;22070;50.922;5.430;2023-04-15T14:03:31;16.90;99.90
36002;DHT22;22070;50.922;5.430;2023-04-15T14:05:58;17.00;99.90
36002;DHT22;22070;50.922;5.430;2023-04-15T14:08:24;17.00;99.90
36002;DHT22;22070;50.922;5.430;2023-04-15T14:10:50;17.00;99.90
36002;DHT22;22070;50.922;5.430;2023-04-15T14:13:15;16.90;99.90
36002;DHT22;22070;50.922;5.430;2023-04-15T14:15:41;16.80;99.90
36002;DHT22;22070;50.922;5.430;2023-04-15T14:18:07;16.70;99.90
36002;DHT22;22070;50.922;5.430;2023-04-15T14:20:32;16.60;99.90
36002;DHT22;22070;50.922;5.430;2023-04-15T14:22:58;16.60;99.90
36002;DHT22;22070;50.922;5.430;2023-04-15T14:25:24;16.70;99.90
36002;DHT22;22070;50.922;5.430;2023-04-15T14:27:51;16.70;99.90
36002;DHT22;22070;50.922;5.430;2023-04-15T14:30:17;17.00;99.90
36002;DHT22;22070;50.922;5.430;2023-04-15T14:32:42;16.80;99.90
36002;DHT22;22070;50.922;5.430;2023-04-15T14:35:08;16.50;99.90
36002;DHT22;22070;50.922;5.430;2023-04-15T14:37:33;16.70;99.90
36002;DHT22;22070;50.922;5.430;2023-04-15T14:39:59;16.90;99.90
36002;DHT22;22070;50.922;5.430;2023-04-15T14:42:25;17.00;99.90
36002;DHT22;22070;50.922;5.430;2023-04-15T14:44:50;17.00;99.90
36002;DHT22;22070;50.922;5.430;2023-04-15T14:47:16;17.00;99.90
36002;DHT22;22070;50.922;5.430;2023-04-15T14:49:42;17.20;99.90
36002;DHT22;22070;50.922;5.430;2023-04-15T14:52:07;17.30;99.90
36002;DHT22;22070;50.922;5.430;2023-04-15T14:54:33;17.20;99.90
36002;DHT22;22070;50.922;5.430;2023-04-15T14:56:58;17.40;99.90
36002;DHT22;22070;50.922;5.430;2023-04-15T14:59:26;17.50;99.90
36002;DHT22;22070;50.922;5.430;2023-04-15T15:01:52;17.50;99.90
36002;DHT22;22070;50.922;5.430;2023-04-15T15:04:17;17.70;99.90
36002;DHT22;22070;50.922;5.430;2023-04-15T15:06:43;17.80;99.90
36002;DHT22;22070;50.922;5.430;2023-04-15T15:09:09;17.80;99.90
36002;DHT22;22070;50.922;5.430;2023-04-15T15:11:34;17.90;99.90
36002;DHT22;22070;50.922;5.430;2023-04-15T15:14:00;17.80;99.90
36002;DHT22;22070;50.922;5.430;2023-04-15T15:16:26;17.50;99.90
36002;DHT22;22070;50.922;5.430;2023-04-15T15:18:52;17.50;99.90
36002;DHT22;22070;50.922;5.430;2023-04-15T15:21:18;17.60;99.90
36002;DHT22;22070;50.922;5.430;2023-04-15T15:23:44;17.50;99.90
36002;DHT22;22070;50.922;5.430;2023-04-15T15:26:11;17.60;99.90
36002;DHT22;22070;50.922;5.430;2023-04-15T15:28:36;17.40;99.90
36002;DHT22;22070;50.922;5.430;2023-04-15T15:31:02;17.30;99.90
36002;DHT22;22070;50.922;5.430;2023-04-15T15:33:28;17.50;99.90
36002;DHT22;22070;50.922;5.430;2023-04-15T15:35:54;17.80;99.90
36002;DHT22;22070;50.922;5.430;2023-04-15T15:38:21;17.90;99.90
36002;DHT22;22070;50.922;5.430;2023-04-15T15:40:46;17.80;99.90
36002;DHT22;22070;50.922;5.430;2023-04-15T15:43:12;17.60;99.90
36002;DHT22;22070;50.922;5.430;2023-04-15T15:45:39;17.30;99.90
36002;DHT22;22070;50.922;5.430;2023-04-15T15:48:05;17.40;99.90
36002;DHT22;22070;50.922;5.430;2023-04-15T15:50:31;17.50;99.90
36002;DHT22;22070;50.922;5.430;2023-04-15T15:52:56;17.60;99.90
36002;DHT22;22070;50.922;5.430;2023-04-15T15:55:23;17.50;99.90